Tabellarische Übersicht vom Samstag, den 16.10.2021

Oder anderes Datum wählen:






max 13,4°C 96,0% 9,0°C 1022,2hPa 13,0°C 0,0km/h (0Bft) 0,0km/h 0° (N) ∑0,2l/m² 69,000klx ∑0,0min
min 3,1°C 54,0% 2,5°C 1021,1hPa 3,0°C 0,0km/h (0Bft) 0,0km/h 0° (N) ∑0,2l/m² 0,000klx ∑0,0min
Ø 6,0°C 92,0% 4,6°C 1021,6hPa 6,0°C 0,0km/h (0Bft) 0,0km/h 0° (N) ∑0,2l/m² 24,000klx ∑0,0min
Zeit Temperatur Luftfeuchte Taupunkt Luftdruck Windchill Windböen Windgeschwindigkeit Windrichtung Regen Helligkeit Regenzeit
13:45 12,6°C 56,0% 4,0°C 1021,7hPa 12,6°C 0,0km/h (0Bft) 0,0km/h 0,0l/m² 21,410klx 0,0min
13:40 12,8°C 56,5% 4,4°C 1021,7hPa 12,8°C 0,0km/h (0Bft) 0,0km/h 0,0l/m² 21,712klx 0,0min
13:35 13,1°C 55,2% 4,3°C 1021,7hPa 13,1°C 0,0km/h (0Bft) 0,0km/h 0,0l/m² 25,130klx 0,0min
13:30 13,1°C 55,6% 4,4°C 1021,8hPa 13,1°C 0,0km/h (0Bft) 0,0km/h 0,0l/m² 50,449klx 0,0min
13:25 13,3°C 55,4% 4,5°C 1021,8hPa 13,3°C 0,0km/h (0Bft) 0,0km/h 0,0l/m² 59,720klx 0,0min
13:20 13,5°C 54,8% 4,5°C 1021,8hPa 13,5°C 0,0km/h (0Bft) 0,0km/h 0,0l/m² 58,600klx 0,0min
13:15 13,4°C 56,1% 4,8°C 1021,8hPa 13,4°C 0,0km/h (0Bft) 0,0km/h 0,0l/m² 60,290klx 0,0min
13:10 13,4°C 55,5% 4,6°C 1021,9hPa 13,4°C 0,0km/h (0Bft) 0,0km/h 0,0l/m² 67,137klx 0,0min
13:05 13,3°C 54,4% 4,3°C 1022,0hPa 13,3°C 0,0km/h (0Bft) 0,0km/h 0,0l/m² 68,983klx 0,0min
13:00 13,2°C 59,7% 5,5°C 1022,0hPa 13,2°C 0,0km/h (0Bft) 0,0km/h 0,0l/m² 68,308klx 0,0min
12:55 13,1°C 63,2% 6,2°C 1022,0hPa 13,1°C 0,0km/h (0Bft) 0,0km/h 0,0l/m² 67,774klx 0,0min
12:50 12,4°C 69,0% 6,9°C 1022,0hPa 12,4°C 0,0km/h (0Bft) 0,0km/h 0,0l/m² 64,684klx 0,0min
12:45 11,9°C 73,1% 7,2°C 1022,0hPa 11,9°C 0,0km/h (0Bft) 0,0km/h 0,0l/m² 59,366klx 0,0min
12:40 11,8°C 73,0% 7,1°C 1022,0hPa 11,8°C 0,0km/h (0Bft) 0,0km/h 0,0l/m² 53,697klx 0,0min
12:35 11,9°C 74,3% 7,5°C 1022,1hPa 11,9°C 0,0km/h (0Bft) 0,0km/h 0,0l/m² 56,222klx 0,0min
12:30 11,3°C 82,5% 8,4°C 1022,1hPa 11,3°C 0,0km/h (0Bft) 0,0km/h 0,0l/m² 57,022klx 0,0min
12:25 11,4°C 84,4% 8,9°C 1022,2hPa 11,4°C 0,0km/h (0Bft) 0,0km/h 0,0l/m² 60,460klx 0,0min
12:20 11,6°C 83,5% 8,9°C 1022,2hPa 11,6°C 0,0km/h (0Bft) 0,0km/h 0,0l/m² 54,020klx 0,0min
12:15 11,4°C 83,9% 8,8°C 1022,2hPa 11,4°C 0,0km/h (0Bft) 0,0km/h 0,0l/m² 47,203klx 0,0min
12:10 10,9°C 86,0% 8,6°C 1022,2hPa 10,9°C 0,0km/h (0Bft) 0,0km/h 0,0l/m² 34,285klx 0,0min
12:05 10,8°C 88,6% 9,0°C 1022,2hPa 10,8°C 0,0km/h (0Bft) 0,0km/h 0,0l/m² 27,592klx 0,0min
12:00 10,6°C 89,3% 8,9°C 1022,2hPa 10,6°C 0,0km/h (0Bft) 0,0km/h 0,0l/m² 25,598klx 0,0min
11:55 10,6°C 89,8% 9,0°C 1022,2hPa 10,6°C 0,0km/h (0Bft) 0,0km/h 0,0l/m² 24,686klx 0,0min
11:50 10,4°C 89,5% 8,7°C 1022,2hPa 10,4°C 0,0km/h (0Bft) 0,0km/h 0,0l/m² 24,253klx 0,0min
11:45 10,3°C 89,6% 8,6°C 1022,1hPa 10,3°C 0,0km/h (0Bft) 0,0km/h 0,0l/m² 24,649klx 0,0min
11:40 10,1°C 89,7% 8,4°C 1022,1hPa 10,1°C 0,0km/h (0Bft) 0,0km/h 0,0l/m² 23,041klx 0,0min
11:35 9,9°C 89,7% 8,3°C 1022,1hPa 9,9°C 0,0km/h (0Bft) 0,0km/h 0,0l/m² 21,605klx 0,0min
11:30 9,8°C 89,3% 8,1°C 1022,1hPa 9,8°C 0,0km/h (0Bft) 0,0km/h 0,0l/m² 20,770klx 0,0min
11:25 9,8°C 89,0% 8,0°C 1022,0hPa 9,8°C 0,0km/h (0Bft) 0,0km/h 0,0l/m² 19,946klx 0,0min
11:20 9,7°C 89,3% 8,0°C 1022,0hPa 9,7°C 0,0km/h (0Bft) 0,0km/h 0,0l/m² 23,546klx 0,0min
11:15 9,5°C 89,9% 8,0°C 1022,1hPa 9,5°C 0,0km/h (0Bft) 0,0km/h 0,0l/m² 26,873klx 0,0min
11:10 9,5°C 91,6% 8,2°C 1022,1hPa 9,5°C 0,0km/h (0Bft) 0,0km/h 0,0l/m² 46,286klx 0,0min
11:05 9,0°C 92,9% 7,9°C 1022,1hPa 9,0°C 0,0km/h (0Bft) 0,0km/h 0,0l/m² 44,168klx 0,0min
11:00 8,8°C 93,2% 7,7°C 1022,1hPa 8,8°C 0,0km/h (0Bft) 0,0km/h 0,0l/m² 22,034klx 0,0min
10:55 8,4°C 93,2% 7,4°C 1022,1hPa 8,4°C 0,0km/h (0Bft) 0,0km/h 0,0l/m² 21,146klx 0,0min
10:50 8,2°C 93,4% 7,2°C 1022,1hPa 8,2°C 0,0km/h (0Bft) 0,0km/h 0,0l/m² 21,177klx 0,0min
10:45 8,0°C 93,7% 7,0°C 1022,1hPa 8,0°C 0,0km/h (0Bft) 0,0km/h 0,0l/m² 21,545klx 0,0min
10:40 7,7°C 94,0% 6,8°C 1022,2hPa 7,7°C 0,0km/h (0Bft) 0,0km/h 0,0l/m² 20,698klx 0,0min
10:35 7,6°C 94,1% 6,7°C 1022,2hPa 7,6°C 0,0km/h (0Bft) 0,0km/h 0,0l/m² 18,463klx 0,0min
10:30 7,4°C 94,2% 6,6°C 1022,2hPa 7,4°C 0,0km/h (0Bft) 0,0km/h 0,0l/m² 17,957klx 0,0min
10:25 7,3°C 94,4% 6,5°C 1022,2hPa 7,3°C 0,0km/h (0Bft) 0,0km/h 0,0l/m² 17,780klx 0,0min
10:20 7,2°C 94,4% 6,4°C 1022,1hPa 7,2°C 0,0km/h (0Bft) 0,0km/h 0,0l/m² 16,424klx 0,0min
10:15 7,1°C 94,6% 6,3°C 1022,1hPa 7,1°C 0,0km/h (0Bft) 0,0km/h 0,0l/m² 16,101klx 0,0min
10:10 7,0°C 94,8% 6,2°C 1022,2hPa 7,0°C 0,0km/h (0Bft) 0,0km/h 0,0l/m² 16,149klx 0,0min
10:05 6,7°C 94,8% 5,9°C 1022,2hPa 6,7°C 0,0km/h (0Bft) 0,0km/h 0,0l/m² 16,393klx 0,0min
10:00 6,7°C 95,0% 6,0°C 1022,1hPa 6,7°C 0,0km/h (0Bft) 0,0km/h 0,0l/m² 16,198klx 0,0min
09:55 6,6°C 95,3% 5,9°C 1022,1hPa 6,6°C 0,0km/h (0Bft) 0,0km/h 0,0l/m² 17,355klx 0,0min
09:50 6,3°C 95,4% 5,7°C 1022,1hPa 6,3°C 0,0km/h (0Bft) 0,0km/h 0,0l/m² 15,084klx 0,0min
09:45 6,0°C 95,3% 5,3°C 1022,1hPa 6,0°C 0,0km/h (0Bft) 0,0km/h 0,0l/m² 14,872klx 0,0min
09:40 5,9°C 95,4% 5,3°C 1022,1hPa 5,9°C 0,0km/h (0Bft) 0,0km/h 0,0l/m² 14,425klx 0,0min
09:35 5,8°C 95,6% 5,2°C 1022,0hPa 5,8°C 0,0km/h (0Bft) 0,0km/h 0,0l/m² 13,530klx 0,0min
09:30 5,5°C 95,6% 4,8°C 1022,0hPa 5,5°C 0,0km/h (0Bft) 0,0km/h 0,0l/m² 14,266klx 0,0min
09:25 5,2°C 95,5% 4,5°C 1022,0hPa 5,2°C 0,0km/h (0Bft) 0,0km/h 0,0l/m² 10,787klx 0,0min
09:20 5,1°C 95,5% 4,4°C 1022,0hPa 5,1°C 0,0km/h (0Bft) 0,0km/h 0,0l/m² 8,917klx 0,0min
09:15 5,2°C 95,7% 4,5°C 1021,9hPa 5,2°C 0,0km/h (0Bft) 0,0km/h 0,0l/m² 8,977klx 0,0min
09:10 4,9°C 95,7% 4,3°C 1021,9hPa 4,9°C 0,0km/h (0Bft) 0,0km/h 0,0l/m² 8,340klx 0,0min
09:05 4,7°C 95,8% 4,1°C 1021,9hPa 4,7°C 0,0km/h (0Bft) 0,0km/h 0,0l/m² 9,127klx 0,0min
09:00 4,6°C 95,9% 4,0°C 1021,8hPa 4,6°C 0,0km/h (0Bft) 0,0km/h 0,0l/m² 8,670klx 0,0min
08:55 4,3°C 95,9% 3,7°C 1021,8hPa 4,3°C 0,0km/h (0Bft) 0,0km/h 0,0l/m² 7,485klx 0,0min
08:50 4,1°C 95,9% 3,4°C 1021,8hPa 4,1°C 0,0km/h (0Bft) 0,0km/h 0,0l/m² 5,963klx 0,0min
08:45 3,9°C 95,9% 3,3°C 1021,8hPa 3,9°C 0,0km/h (0Bft) 0,0km/h 0,0l/m² 5,632klx 0,0min
08:40 3,8°C 95,9% 3,2°C 1021,8hPa 3,8°C 0,0km/h (0Bft) 0,0km/h 0,0l/m² 4,756klx 0,0min
08:35 3,8°C 95,9% 3,2°C 1021,8hPa 3,8°C 0,0km/h (0Bft) 0,0km/h 0,0l/m² 4,131klx 0,0min
08:30 4,0°C 96,1% 3,4°C 1021,7hPa 4,0°C 0,0km/h (0Bft) 0,0km/h 0,0l/m² 3,270klx 0,0min
08:25 3,9°C 96,2% 3,3°C 1021,6hPa 3,9°C 0,0km/h (0Bft) 0,0km/h 0,0l/m² 2,711klx 0,0min
08:20 3,7°C 96,0% 3,1°C 1021,5hPa 3,7°C 0,0km/h (0Bft) 0,0km/h 0,0l/m² 2,085klx 0,0min
08:15 3,7°C 96,0% 3,1°C 1021,5hPa 3,7°C 0,0km/h (0Bft) 0,0km/h 0,0l/m² 1,591klx 0,0min
08:10 3,6°C 96,0% 3,0°C 1021,5hPa 3,6°C 0,0km/h (0Bft) 0,0km/h 0,0l/m² 1,234klx 0,0min
08:05 3,5°C 96,0% 2,9°C 1021,5hPa 3,5°C 0,0km/h (0Bft) 0,0km/h 0,0l/m² 0,875klx 0,0min
08:00 3,5°C 96,0% 2,9°C 1021,5hPa 3,5°C 0,0km/h (0Bft) 0,0km/h 0,0l/m² 0,570klx 0,0min
07:55 3,4°C 96,0% 2,9°C 1021,4hPa 3,4°C 0,0km/h (0Bft) 0,0km/h 0,0l/m² 0,350klx 0,0min
07:50 3,3°C 96,0% 2,7°C 1021,4hPa 3,3°C 0,0km/h (0Bft) 0,0km/h 0,0l/m² 0,196klx 0,0min
07:45 3,3°C 96,0% 2,7°C 1021,4hPa 3,3°C 0,0km/h (0Bft) 0,0km/h 0,0l/m² 0,097klx 0,0min
07:40 3,2°C 96,0% 2,6°C 1021,4hPa 3,2°C 0,0km/h (0Bft) 0,0km/h 0,0l/m² 0,044klx 0,0min
07:35 3,1°C 95,9% 2,5°C 1021,3hPa 3,1°C 0,0km/h (0Bft) 0,0km/h 0,0l/m² 0,018klx 0,0min
07:30 3,1°C 95,9% 2,5°C 1021,3hPa 3,1°C 0,0km/h (0Bft) 0,0km/h 0,0l/m² 0,007klx 0,0min
07:25 3,1°C 95,9% 2,5°C 1021,3hPa 3,1°C 0,0km/h (0Bft) 0,0km/h 0,0l/m² 0,003klx 0,0min
07:20 3,2°C 96,0% 2,6°C 1021,3hPa 3,2°C 0,0km/h (0Bft) 0,0km/h 0,0l/m² 0,001klx 0,0min
07:15 3,1°C 96,0% 2,5°C 1021,3hPa 3,1°C 0,0km/h (0Bft) 0,0km/h 0,0l/m² 0,000klx 0,0min
07:10 3,2°C 95,9% 2,6°C 1021,3hPa 3,2°C 0,0km/h (0Bft) 0,0km/h 0,0l/m² 0,000klx 0,0min
07:05 3,2°C 96,0% 2,6°C 1021,3hPa 3,2°C 0,0km/h (0Bft) 0,0km/h 0,0l/m² 0,000klx 0,0min
07:00 3,2°C 95,9% 2,6°C 1021,4hPa 3,2°C 0,0km/h (0Bft) 0,0km/h 0,0l/m² 0,000klx 0,0min
06:55 3,3°C 95,9% 2,7°C 1021,4hPa 3,3°C 0,0km/h (0Bft) 0,0km/h 0,0l/m² 0,000klx 0,0min
06:50 3,3°C 95,9% 2,7°C 1021,4hPa 3,3°C 0,0km/h (0Bft) 0,0km/h 0,0l/m² 0,000klx 0,0min
06:45 3,3°C 95,8% 2,7°C 1021,4hPa 3,3°C 0,0km/h (0Bft) 0,0km/h 0,0l/m² 0,000klx 0,0min
06:40 3,2°C 95,8% 2,6°C 1021,4hPa 3,2°C 0,0km/h (0Bft) 0,0km/h 0,0l/m² 0,000klx 0,0min
06:35 3,2°C 95,8% 2,6°C 1021,4hPa 3,2°C 0,0km/h (0Bft) 0,0km/h 0,0l/m² 0,000klx 0,0min
06:30 3,2°C 95,7% 2,6°C 1021,4hPa 3,2°C 0,0km/h (0Bft) 0,0km/h 0,0l/m² 0,000klx 0,0min
06:25 3,2°C 95,7% 2,6°C 1021,4hPa 3,2°C 0,0km/h (0Bft) 0,0km/h 0,0l/m² 0,000klx 0,0min
06:20 3,3°C 95,7% 2,6°C 1021,4hPa 3,3°C 0,0km/h (0Bft) 0,0km/h 0,0l/m² 0,000klx 0,0min
06:15 3,3°C 95,7% 2,7°C 1021,4hPa 3,3°C 0,0km/h (0Bft) 0,0km/h 0,0l/m² 0,000klx 0,0min
06:10 3,4°C 95,7% 2,8°C 1021,3hPa 3,4°C 0,0km/h (0Bft) 0,0km/h 0,0l/m² 0,000klx 0,0min
06:05 3,5°C 95,7% 2,8°C 1021,3hPa 3,5°C 0,0km/h (0Bft) 0,0km/h 0,0l/m² 0,000klx 0,0min
06:00 3,5°C 95,8% 2,9°C 1021,3hPa 3,5°C 0,0km/h (0Bft) 0,0km/h 0,0l/m² 0,000klx 0,0min
05:55 3,6°C 95,8% 3,0°C 1021,3hPa 3,6°C 0,0km/h (0Bft) 0,0km/h 0,0l/m² 0,000klx 0,0min
05:50 3,5°C 95,8% 2,9°C 1021,4hPa 3,5°C 0,0km/h (0Bft) 0,0km/h 0,0l/m² 0,000klx 0,0min
05:45 3,5°C 95,8% 2,9°C 1021,3hPa 3,5°C 0,0km/h (0Bft) 0,0km/h 0,0l/m² 0,000klx 0,0min
05:40 3,4°C 95,8% 2,8°C 1021,3hPa 3,4°C 0,0km/h (0Bft) 0,0km/h 0,0l/m² 0,000klx 0,0min
05:35 3,4°C 95,8% 2,8°C 1021,3hPa 3,4°C 0,0km/h (0Bft) 0,0km/h 0,0l/m² 0,000klx 0,0min
05:30 3,4°C 95,7% 2,7°C 1021,3hPa 3,4°C 0,0km/h (0Bft) 0,0km/h 0,0l/m² 0,000klx 0,0min
05:25 3,4°C 95,7% 2,8°C 1021,3hPa 3,4°C 0,0km/h (0Bft) 0,0km/h 0,0l/m² 0,000klx 0,0min
05:20 3,4°C 95,7% 2,8°C 1021,4hPa 3,4°C 0,0km/h (0Bft) 0,0km/h 0,1l/m² 0,000klx 0,0min
05:15 3,5°C 95,6% 2,9°C 1021,4hPa 3,5°C 0,0km/h (0Bft) 0,0km/h 0,0l/m² 0,000klx 0,0min
05:10 3,6°C 95,6% 3,0°C 1021,4hPa 3,6°C 0,0km/h (0Bft) 0,0km/h 0,0l/m² 0,000klx 0,0min
05:05 3,8°C 95,7% 3,1°C 1021,4hPa 3,8°C 0,0km/h (0Bft) 0,0km/h 0,0l/m² 0,000klx 0,0min
05:00 3,8°C 95,7% 3,1°C 1021,4hPa 3,8°C 0,0km/h (0Bft) 0,0km/h 0,0l/m² 0,000klx 0,0min
04:55 3,8°C 95,7% 3,2°C 1021,3hPa 3,8°C 0,0km/h (0Bft) 0,0km/h 0,0l/m² 0,000klx 0,0min
04:50 3,9°C 95,7% 3,2°C 1021,3hPa 3,9°C 0,0km/h (0Bft) 0,0km/h 0,0l/m² 0,000klx 0,0min
04:45 3,9°C 95,7% 3,2°C 1021,3hPa 3,9°C 0,0km/h (0Bft) 0,0km/h 0,0l/m² 0,000klx 0,0min
04:40 3,9°C 95,7% 3,3°C 1021,3hPa 3,9°C 0,0km/h (0Bft) 0,0km/h 0,0l/m² 0,000klx 0,0min
04:35 3,9°C 95,7% 3,3°C 1021,2hPa 3,9°C 0,0km/h (0Bft) 0,0km/h 0,0l/m² 0,000klx 0,0min
04:30 3,9°C 95,7% 3,3°C 1021,2hPa 3,9°C 0,0km/h (0Bft) 0,0km/h 0,0l/m² 0,000klx 0,0min
04:25 3,9°C 95,7% 3,2°C 1021,2hPa 3,9°C 0,0km/h (0Bft) 0,0km/h 0,0l/m² 0,000klx 0,0min
04:20 3,9°C 95,7% 3,3°C 1021,3hPa 3,9°C 0,0km/h (0Bft) 0,0km/h 0,0l/m² 0,000klx 0,0min
04:15 3,9°C 95,6% 3,2°C 1021,3hPa 3,9°C 0,0km/h (0Bft) 0,0km/h 0,0l/m² 0,000klx 0,0min
04:10 3,9°C 95,6% 3,2°C 1021,2hPa 3,9°C 0,0km/h (0Bft) 0,0km/h 0,0l/m² 0,000klx 0,0min
04:05 4,1°C 95,7% 3,4°C 1021,2hPa 4,1°C 0,0km/h (0Bft) 0,0km/h 0,0l/m² 0,000klx 0,0min
04:00 4,1°C 95,7% 3,5°C 1021,1hPa 4,1°C 0,0km/h (0Bft) 0,0km/h 0,0l/m² 0,000klx 0,0min
03:55 4,0°C 95,7% 3,4°C 1021,1hPa 4,0°C 0,0km/h (0Bft) 0,0km/h 0,0l/m² 0,000klx 0,0min
03:50 4,1°C 95,7% 3,4°C 1021,2hPa 4,1°C 0,0km/h (0Bft) 0,0km/h 0,0l/m² 0,000klx 0,0min
03:45 4,0°C 95,7% 3,4°C 1021,2hPa 4,0°C 0,0km/h (0Bft) 0,0km/h 0,0l/m² 0,000klx 0,0min
03:40 4,0°C 95,6% 3,3°C 1021,2hPa 4,0°C 0,0km/h (0Bft) 0,0km/h 0,0l/m² 0,000klx 0,0min
03:35 4,1°C 95,6% 3,4°C 1021,3hPa 4,1°C 0,0km/h (0Bft) 0,0km/h 0,0l/m² 0,000klx 0,0min
03:30 4,1°C 95,6% 3,5°C 1021,3hPa 4,1°C 0,0km/h (0Bft) 0,0km/h 0,0l/m² 0,000klx 0,0min
03:25 4,1°C 95,6% 3,5°C 1021,3hPa 4,1°C 0,0km/h (0Bft) 0,0km/h 0,0l/m² 0,000klx 0,0min
03:20 4,2°C 95,6% 3,5°C 1021,3hPa 4,2°C 0,0km/h (0Bft) 0,0km/h 0,0l/m² 0,000klx 0,0min
03:15 4,3°C 95,7% 3,6°C 1021,3hPa 4,3°C 0,0km/h (0Bft) 0,0km/h 0,0l/m² 0,000klx 0,0min
03:10 4,3°C 95,7% 3,6°C 1021,3hPa 4,3°C 0,0km/h (0Bft) 0,0km/h 0,0l/m² 0,000klx 0,0min
03:05 4,3°C 95,7% 3,6°C 1021,3hPa 4,3°C 0,0km/h (0Bft) 0,0km/h 0,0l/m² 0,000klx 0,0min
03:00 4,3°C 95,6% 3,7°C 1021,3hPa 4,3°C 0,0km/h (0Bft) 0,0km/h 0,0l/m² 0,000klx 0,0min
02:55 4,3°C 95,6% 3,7°C 1021,3hPa 4,3°C 0,0km/h (0Bft) 0,0km/h 0,0l/m² 0,000klx 0,0min
02:50 4,5°C 95,7% 3,8°C 1021,3hPa 4,5°C 0,0km/h (0Bft) 0,0km/h 0,0l/m² 0,000klx 0,0min
02:45 4,4°C 95,5% 3,7°C 1021,3hPa 4,4°C 0,0km/h (0Bft) 0,0km/h 0,0l/m² 0,000klx 0,0min
02:40 4,5°C 95,5% 3,8°C 1021,4hPa 4,5°C 0,0km/h (0Bft) 0,0km/h 0,0l/m² 0,000klx 0,0min
02:35 4,6°C 95,5% 4,0°C 1021,4hPa 4,6°C 0,0km/h (0Bft) 0,0km/h 0,0l/m² 0,000klx 0,0min
02:30 4,7°C 95,5% 4,0°C 1021,4hPa 4,7°C 0,0km/h (0Bft) 0,0km/h 0,0l/m² 0,000klx 0,0min
02:25 4,7°C 95,5% 4,0°C 1021,4hPa 4,7°C 0,0km/h (0Bft) 0,0km/h 0,0l/m² 0,000klx 0,0min
02:20 4,8°C 95,5% 4,1°C 1021,4hPa 4,8°C 0,0km/h (0Bft) 0,0km/h 0,0l/m² 0,000klx 0,0min
02:15 4,8°C 95,5% 4,1°C 1021,4hPa 4,8°C 0,0km/h (0Bft) 0,0km/h 0,0l/m² 0,000klx 0,0min
02:10 4,8°C 95,4% 4,1°C 1021,4hPa 4,8°C 0,0km/h (0Bft) 0,0km/h 0,0l/m² 0,000klx 0,0min
02:05 4,9°C 95,4% 4,2°C 1021,4hPa 4,9°C 0,0km/h (0Bft) 0,0km/h 0,0l/m² 0,000klx 0,0min
02:00 5,0°C 95,5% 4,3°C 1021,4hPa 5,0°C 0,0km/h (0Bft) 0,0km/h 0,0l/m² 0,000klx 0,0min
01:55 5,0°C 95,5% 4,3°C 1021,3hPa 5,0°C 0,0km/h (0Bft) 0,0km/h 0,0l/m² 0,000klx 0,0min
01:50 5,0°C 95,5% 4,4°C 1021,3hPa 5,0°C 0,0km/h (0Bft) 0,0km/h 0,0l/m² 0,000klx 0,0min
01:45 5,0°C 95,5% 4,4°C 1021,3hPa 5,0°C 0,0km/h (0Bft) 0,0km/h 0,0l/m² 0,000klx 0,0min
01:40 5,0°C 95,5% 4,3°C 1021,3hPa 5,0°C 0,0km/h (0Bft) 0,0km/h 0,0l/m² 0,000klx 0,0min
01:35 5,0°C 95,5% 4,4°C 1021,3hPa 5,0°C 0,0km/h (0Bft) 0,0km/h 0,0l/m² 0,000klx 0,0min
01:30 5,1°C 95,6% 4,4°C 1021,2hPa 5,1°C 0,0km/h (0Bft) 0,0km/h 0,0l/m² 0,000klx 0,0min
01:25 5,2°C 95,5% 4,5°C 1021,2hPa 5,2°C 0,0km/h (0Bft) 0,0km/h 0,0l/m² 0,000klx 0,0min
01:20 5,2°C 95,4% 4,5°C 1021,2hPa 5,2°C 0,0km/h (0Bft) 0,0km/h 0,0l/m² 0,000klx 0,0min
01:15 5,2°C 95,4% 4,5°C 1021,2hPa 5,2°C 0,0km/h (0Bft) 0,0km/h 0,0l/m² 0,000klx 0,0min
01:10 5,2°C 95,4% 4,5°C 1021,2hPa 5,2°C 0,0km/h (0Bft) 0,0km/h 0,0l/m² 0,000klx 0,0min
01:05 5,2°C 95,3% 4,5°C 1021,1hPa 5,2°C 0,0km/h (0Bft) 0,0km/h 0,0l/m² 0,000klx 0,0min
01:00 5,4°C 95,3% 4,7°C 1021,2hPa 5,4°C 0,0km/h (0Bft) 0,0km/h 0,0l/m² 0,000klx 0,0min
00:55 5,5°C 95,2% 4,7°C 1021,1hPa 5,5°C 0,0km/h (0Bft) 0,0km/h 0,0l/m² 0,000klx 0,0min
00:50 5,5°C 95,2% 4,8°C 1021,1hPa 5,5°C 0,0km/h (0Bft) 0,0km/h 0,0l/m² 0,000klx 0,0min
00:45 5,6°C 95,2% 4,9°C 1021,2hPa 5,6°C 0,0km/h (0Bft) 0,0km/h 0,0l/m² 0,000klx 0,0min
00:40 5,6°C 95,2% 4,9°C 1021,1hPa 5,6°C 0,0km/h (0Bft) 0,0km/h 0,0l/m² 0,000klx 0,0min
00:35 5,7°C 95,2% 5,0°C 1021,1hPa 5,7°C 0,0km/h (0Bft) 0,0km/h 0,0l/m² 0,000klx 0,0min
00:30 5,7°C 95,2% 5,0°C 1021,1hPa 5,7°C 0,0km/h (0Bft) 0,0km/h 0,0l/m² 0,000klx 0,0min
00:25 5,7°C 95,2% 5,0°C 1021,1hPa 5,7°C 0,0km/h (0Bft) 0,0km/h 0,0l/m² 0,000klx 0,0min
00:20 5,7°C 95,2% 5,0°C 1021,2hPa 5,7°C 0,0km/h (0Bft) 0,0km/h 0,0l/m² 0,000klx 0,0min
00:15 5,8°C 95,1% 5,1°C 1021,2hPa 5,8°C 0,0km/h (0Bft) 0,0km/h 0,0l/m² 0,000klx 0,0min
00:10 6,0°C 95,1% 5,2°C 1021,2hPa 6,0°C 0,0km/h (0Bft) 0,0km/h 0,0l/m² 0,000klx 0,0min
00:05 6,2°C 95,3% 5,5°C 1021,2hPa 6,2°C 0,0km/h (0Bft) 0,0km/h 0,0l/m² 0,000klx 0,0min
00:00 6,1°C 95,2% 5,4°C 1021,1hPa 6,1°C 0,0km/h (0Bft) 0,0km/h 0,0l/m² 0,000klx 0,0min

Aktuelle Wetterdaten

16.10.2021 13:45 Uhr